Time;durP1;ratioP1;P1;durP2;ratioP2;P2;SDS_P1;SDS_P2;PMS_P1;PMS_P2;Temp;Humidity;BMP_temperature;BMP_pressure;BME280_temperature;BME280_humidity;BME280_pressure;Samples;Min_cycle;Max_cycle;Signal;HPM_P1;HPM_P2
2022/11/02 00:01:55;;;;;;;7.03;3.03;;;10.10;99.90;;;;;;937651;150;27356;-81
2022/11/02 00:04:22;;;;;;;7.10;3.30;;;10.00;99.90;;;;;;938021;149;27342;-81
2022/11/02 00:06:48;;;;;;;4.10;3.03;;;10.00;99.90;;;;;;938856;150;27463;-81
2022/11/02 00:09:15;;;;;;;5.37;3.47;;;10.00;99.90;;;;;;938587;151;27509;-81
2022/11/02 00:11:41;;;;;;;4.47;2.93;;;10.00;99.90;;;;;;939986;149;27355;-82
2022/11/02 00:14:08;;;;;;;4.87;3.40;;;10.00;99.90;;;;;;938722;151;28516;-81
2022/11/02 00:16:35;;;;;;;5.57;3.57;;;10.00;99.90;;;;;;937706;149;27334;-81
2022/11/02 00:19:01;;;;;;;5.80;3.37;;;10.00;99.90;;;;;;938141;150;27373;-81
2022/11/02 00:21:28;;;;;;;5.50;3.00;;;10.00;99.90;;;;;;904655;154;28178;-81
2022/11/02 00:23:54;;;;;;;5.43;3.20;;;10.00;99.90;;;;;;925063;152;27492;-81
2022/11/02 00:26:21;;;;;;;6.63;3.00;;;10.00;99.90;;;;;;921790;152;27823;-81
2022/11/02 00:28:48;;;;;;;7.17;3.30;;;10.00;99.90;;;;;;934627;150;27487;-81
2022/11/02 00:31:14;;;;;;;6.00;3.40;;;10.00;99.90;;;;;;932959;150;27309;-81
2022/11/02 00:33:41;;;;;;;4.47;3.10;;;10.00;99.90;;;;;;933498;151;27662;-81
2022/11/02 00:36:07;;;;;;;4.37;3.17;;;10.00;99.90;;;;;;933529;150;27423;-81
2022/11/02 00:38:34;;;;;;;4.97;3.40;;;10.00;99.90;;;;;;935453;150;27306;-81
2022/11/02 00:41:00;;;;;;;5.90;3.70;;;9.90;99.90;;;;;;934105;151;27423;-81
2022/11/02 00:43:27;;;;;;;4.23;3.23;;;9.90;99.90;;;;;;932360;151;27304;-81
2022/11/02 00:45:54;;;;;;;4.97;3.17;;;9.90;99.90;;;;;;935197;150;27464;-81
2022/11/02 00:48:20;;;;;;;6.07;3.17;;;9.90;99.90;;;;;;933233;150;28059;-81
2022/11/02 00:50:47;;;;;;;3.33;2.77;;;9.90;99.90;;;;;;934031;151;27382;-81
2022/11/02 00:53:13;;;;;;;6.53;3.20;;;9.90;99.90;;;;;;943373;150;27318;-81
2022/11/02 00:55:40;;;;;;;4.90;2.90;;;9.90;99.90;;;;;;944675;148;27349;-81
2022/11/02 00:58:07;;;;;;;5.93;3.77;;;9.90;99.90;;;;;;943636;151;27365;-81
2022/11/02 01:00:33;;;;;;;3.73;2.80;;;9.90;99.90;;;;;;943022;151;27499;-81
2022/11/02 01:03:00;;;;;;;4.40;2.60;;;9.90;99.90;;;;;;943249;151;27360;-81
2022/11/02 01:05:26;;;;;;;5.60;3.10;;;10.00;99.90;;;;;;944763;148;27324;-81
2022/11/02 01:07:53;;;;;;;5.33;2.70;;;10.00;99.90;;;;;;942851;151;27361;-81
2022/11/02 01:10:19;;;;;;;7.33;2.80;;;10.00;99.90;;;;;;944641;151;27286;-81
2022/11/02 01:12:46;;;;;;;6.00;3.00;;;10.00;99.90;;;;;;944240;150;27373;-81
2022/11/02 01:15:13;;;;;;;3.83;2.70;;;10.00;99.90;;;;;;942524;148;27366;-81
2022/11/02 01:17:39;;;;;;;5.90;2.57;;;10.10;99.90;;;;;;943413;151;27325;-81
2022/11/02 01:20:06;;;;;;;3.87;2.50;;;10.10;99.90;;;;;;944884;151;27479;-81
2022/11/02 01:22:32;;;;;;;3.10;2.60;;;10.10;99.90;;;;;;944603;148;27445;-81
2022/11/02 01:24:59;;;;;;;9.77;3.10;;;10.10;99.90;;;;;;945291;148;27329;-81
2022/11/02 01:27:26;;;;;;;9.37;2.70;;;10.10;99.90;;;;;;944588;148;27350;-81
2022/11/02 01:29:52;;;;;;;2.93;2.50;;;10.10;99.90;;;;;;943847;151;27366;-81
2022/11/02 01:32:19;;;;;;;3.80;2.70;;;10.20;99.90;;;;;;943979;148;27375;-81
2022/11/02 01:34:45;;;;;;;3.20;2.17;;;10.20;99.90;;;;;;943232;148;27375;-81
2022/11/02 01:37:12;;;;;;;6.10;2.87;;;10.20;99.90;;;;;;946954;148;27305;-80
2022/11/02 01:39:39;;;;;;;2.87;2.30;;;10.10;99.90;;;;;;943193;151;27344;-81
2022/11/02 01:42:05;;;;;;;6.53;2.60;;;10.10;99.90;;;;;;943234;148;27286;-82
2022/11/02 01:44:32;;;;;;;5.13;2.53;;;10.10;99.90;;;;;;943203;148;27431;-81
2022/11/02 01:46:58;;;;;;;6.17;2.40;;;10.10;99.90;;;;;;942595;148;27381;-81
2022/11/02 01:49:25;;;;;;;4.17;2.27;;;10.10;99.90;;;;;;945725;150;27341;-81
2022/11/02 01:51:54;;;;;;;6.20;2.70;;;10.10;99.90;;;;;;940543;148;27430;-81
2022/11/02 01:54:24;;;;;;;3.50;2.60;;;10.10;99.90;;;;;;938011;149;27332;-81
2022/11/02 01:56:50;;;;;;;4.63;2.27;;;10.10;99.90;;;;;;938726;149;27403;-81
2022/11/02 01:59:17;;;;;;;4.63;2.30;;;10.10;99.90;;;;;;940643;149;27281;-82
2022/11/02 02:01:43;;;;;;;4.07;2.60;;;10.10;99.90;;;;;;939714;149;27282;-81
2022/11/02 02:04:10;;;;;;;3.37;2.40;;;10.10;99.90;;;;;;938519;149;27402;-81
2022/11/02 02:06:37;;;;;;;2.80;2.23;;;10.10;99.90;;;;;;943110;148;27465;-81
2022/11/02 02:09:03;;;;;;;3.63;2.47;;;10.10;99.90;;;;;;942283;148;27345;-81
2022/11/02 02:11:30;;;;;;;4.00;2.43;;;10.10;99.90;;;;;;940718;148;27491;-81
2022/11/02 02:13:56;;;;;;;4.07;2.33;;;10.10;99.90;;;;;;943632;148;27263;-81
2022/11/02 02:16:23;;;;;;;5.67;2.60;;;10.20;99.90;;;;;;935406;148;27469;-81
2022/11/02 02:18:50;;;;;;;3.90;2.27;;;10.10;99.90;;;;;;924082;151;27389;-81
2022/11/02 02:21:22;;;;;;;3.57;2.27;;;10.20;99.90;;;;;;930711;151;27391;-81
2022/11/02 02:23:57;;;;;;;5.20;2.80;;;10.20;99.90;;;;;;942289;148;27854;-82
2022/11/02 02:26:24;;;;;;;4.93;2.40;;;10.30;99.90;;;;;;926464;151;27487;-81
2022/11/02 02:28:53;;;;;;;4.27;2.30;;;10.40;99.90;;;;;;924993;154;27385;-81
2022/11/02 02:31:28;;;;;;;5.40;2.47;;;10.40;99.90;;;;;;924441;154;27353;-82
2022/11/02 02:34:00;;;;;;;3.83;2.23;;;10.40;99.90;;;;;;922615;151;27366;-81
2022/11/02 02:36:45;;;;;;;4.20;2.10;;;10.50;99.90;;;;;;942468;148;27369;-81
2022/11/02 02:39:18;;;;;;;4.07;2.03;;;10.50;99.90;;;;;;926894;150;27965;-81
2022/11/02 02:41:44;;;;;;;3.43;2.40;;;10.50;99.90;;;;;;926179;153;27383;-80
2022/11/02 02:44:11;;;;;;;4.70;2.30;;;10.50;99.90;;;;;;926905;151;27427;-80
2022/11/02 02:46:37;;;;;;;5.87;2.10;;;10.50;99.90;;;;;;926187;153;27418;-81
2022/11/02 02:49:04;;;;;;;5.07;2.40;;;10.50;99.90;;;;;;926525;151;27948;-81
2022/11/02 02:51:30;;;;;;;6.73;2.30;;;10.50;99.90;;;;;;923933;151;27476;-81
2022/11/02 02:54:06;;;;;;;3.20;2.00;;;10.50;99.90;;;;;;915920;152;27359;-80
2022/11/02 02:56:36;;;;;;;5.90;2.10;;;10.50;99.90;;;;;;907130;155;27378;-81
2022/11/02 02:59:02;;;;;;;5.10;2.50;;;10.50;99.90;;;;;;915741;155;28756;-81
2022/11/02 03:01:29;;;;;;;3.90;1.97;;;10.60;99.90;;;;;;916073;155;27511;-80
2022/11/02 03:03:55;;;;;;;5.80;2.23;;;10.50;99.90;;;;;;917814;155;27713;-81
2022/11/02 03:06:28;;;;;;;5.67;2.23;;;10.50;99.90;;;;;;914105;152;27460;-81
2022/11/02 03:08:54;;;;;;;4.80;2.07;;;10.50;99.90;;;;;;916987;154;27341;-81
2022/11/02 03:11:22;;;;;;;4.10;2.03;;;10.60;99.90;;;;;;909703;155;27481;-81
2022/11/02 03:14:09;;;;;;;3.23;2.00;;;10.50;99.90;;;;;;917933;155;27489;-80
2022/11/02 03:16:54;;;;;;;2.93;2.07;;;10.50;99.90;;;;;;915733;152;27476;-81
2022/11/02 03:19:24;;;;;;;4.60;2.00;;;10.60;99.90;;;;;;917491;155;28045;-80
2022/11/02 03:21:50;;;;;;;3.00;1.97;;;10.60;99.90;;;;;;916972;155;27494;-81
2022/11/02 03:24:20;;;;;;;5.00;2.00;;;10.60;99.90;;;;;;909453;152;27364;-80
2022/11/02 03:27:04;;;;;;;4.23;1.80;;;10.60;99.90;;;;;;915579;152;27348;-80
2022/11/02 03:29:46;;;;;;;6.23;2.53;;;10.60;99.90;;;;;;917408;155;27327;-81
2022/11/02 03:32:24;;;;;;;4.40;2.03;;;10.60;99.90;;;;;;919647;155;27436;-81
2022/11/02 03:34:51;;;;;;;4.03;2.10;;;10.70;99.90;;;;;;901063;155;27403;-81
2022/11/02 03:37:38;;;;;;;3.33;2.00;;;10.70;99.90;;;;;;903044;155;27335;-80
2022/11/02 03:40:23;;;;;;;7.87;2.07;;;10.70;99.90;;;;;;919442;152;27406;-82
2022/11/02 03:42:49;;;;;;;3.20;1.70;;;10.80;99.90;;;;;;917278;155;27341;-82
2022/11/02 03:45:16;;;;;;;4.53;2.23;;;10.80;99.90;;;;;;919872;152;27484;-81
2022/11/02 03:47:43;;;;;;;6.17;1.70;;;10.80;99.90;;;;;;919789;155;27408;-81
2022/11/02 03:50:09;;;;;;;3.43;1.87;;;10.80;99.90;;;;;;918416;155;27291;-81
2022/11/02 03:52:36;;;;;;;1.87;1.77;;;10.80;99.90;;;;;;921395;154;27674;-81
2022/11/02 03:55:05;;;;;;;4.27;2.00;;;10.80;99.90;;;;;;920977;151;27385;-81
2022/11/02 03:57:40;;;;;;;4.20;1.50;;;10.80;99.90;;;;;;921327;154;27405;-80
2022/11/02 04:00:10;;;;;;;1.87;1.53;;;10.80;99.90;;;;;;938643;151;27395;-80
2022/11/02 04:02:36;;;;;;;6.20;2.20;;;10.80;99.90;;;;;;938040;151;27934;-79
2022/11/02 04:05:03;;;;;;;3.90;1.63;;;10.80;99.90;;;;;;938234;151;27455;-79
2022/11/02 04:08:19;;;;;;;3.43;1.63;;;10.80;99.90;;;;;;937582;151;27384;-80
2022/11/02 04:09:56;;;;;;;5.17;1.90;;;10.80;99.90;;;;;;938404;151;27337;-79
2022/11/02 04:15:08;;;;;;;2.57;1.60;;;10.80;99.90;;;;;;938573;149;27394;-80
2022/11/02 04:20:19;;;;;;;2.73;1.80;;;10.90;99.90;;;;;;940170;151;27333;-79
2022/11/02 04:25:31;;;;;;;5.00;1.70;;;11.10;99.90;;;;;;937605;149;27553;-80
2022/11/02 04:27:57;;;;;;;2.80;1.67;;;11.20;99.90;;;;;;941875;148;27327;-80
2022/11/02 04:30:24;;;;;;;3.53;1.80;;;11.30;99.90;;;;;;934351;151;27782;-79
2022/11/02 04:35:36;;;;;;;5.23;2.03;;;11.40;99.90;;;;;;950777;148;27344;-80
2022/11/02 04:40:47;;;;;;;4.10;1.87;;;11.60;99.90;;;;;;932341;151;27396;-80
2022/11/02 04:43:13;;;;;;;4.17;1.73;;;11.60;99.90;;;;;;923405;153;27510;-80
2022/11/02 04:45:40;;;;;;;2.07;1.57;;;11.70;99.90;;;;;;924000;151;27359;-80
2022/11/02 04:48:07;;;;;;;4.47;1.60;;;11.80;99.90;;;;;;950118;148;27459;-79
2022/11/02 04:50:33;;;;;;;7.37;1.57;;;11.80;99.90;;;;;;925246;151;27353;-79
2022/11/02 04:53:00;;;;;;;5.93;1.90;;;11.80;99.90;;;;;;922441;151;27431;-79
2022/11/02 04:55:26;;;;;;;2.43;1.50;;;11.90;99.90;;;;;;916815;152;27471;-79
2022/11/02 04:57:53;;;;;;;2.57;1.60;;;12.00;99.90;;;;;;918915;152;27499;-79
2022/11/02 05:00:20;;;;;;;3.50;1.70;;;12.00;99.90;;;;;;917614;152;27426;-79
2022/11/02 05:02:47;;;;;;;4.97;1.67;;;12.10;99.90;;;;;;924753;152;27351;-79
2022/11/02 05:05:13;;;;;;;3.53;1.40;;;12.10;99.90;;;;;;923227;152;27325;-79
2022/11/02 05:07:39;;;;;;;5.77;1.97;;;12.20;99.90;;;;;;924985;152;27360;-79
2022/11/02 05:10:06;;;;;;;3.57;2.10;;;12.20;99.90;;;;;;922475;152;27394;-79
2022/11/02 05:12:33;;;;;;;4.73;2.03;;;12.20;99.90;;;;;;920900;152;27475;-79
2022/11/02 05:14:59;;;;;;;3.87;1.50;;;12.30;99.90;;;;;;925111;151;27309;-79
2022/11/02 05:17:26;;;;;;;5.10;1.83;;;12.30;99.90;;;;;;932306;151;27430;-79
2022/11/02 05:19:52;;;;;;;5.03;1.80;;;12.30;99.90;;;;;;935544;149;27414;-79
2022/11/02 05:22:20;;;;;;;3.27;2.00;;;12.40;99.90;;;;;;919154;152;27466;-79
2022/11/02 05:24:46;;;;;;;2.63;1.90;;;12.40;99.90;;;;;;933039;152;27444;-79
2022/11/02 05:27:12;;;;;;;4.27;1.70;;;12.40;99.90;;;;;;924623;154;27320;-79
2022/11/02 05:29:39;;;;;;;3.07;1.40;;;12.40;99.90;;;;;;925071;152;27419;-79
2022/11/02 05:32:05;;;;;;;4.37;2.20;;;12.40;99.90;;;;;;924746;152;27289;-80
2022/11/02 05:34:32;;;;;;;3.20;1.87;;;12.40;99.90;;;;;;936049;149;27544;-79
2022/11/02 05:36:59;;;;;;;3.97;1.63;;;12.40;99.90;;;;;;917786;152;27386;-79
2022/11/02 05:39:25;;;;;;;4.47;1.80;;;12.40;99.90;;;;;;916010;155;27398;-79
2022/11/02 05:41:52;;;;;;;6.63;2.13;;;12.40;99.90;;;;;;918336;152;27362;-79
2022/11/02 05:44:18;;;;;;;5.03;1.90;;;12.30;99.90;;;;;;915756;152;27348;-79
2022/11/02 05:46:45;;;;;;;4.93;2.17;;;12.30;99.90;;;;;;916776;155;27442;-79
2022/11/02 05:49:11;;;;;;;4.40;1.90;;;12.20;99.90;;;;;;924340;152;27368;-79
2022/11/02 05:51:38;;;;;;;8.00;2.47;;;12.20;99.90;;;;;;913652;156;27320;-79
2022/11/02 05:54:05;;;;;;;6.80;1.83;;;12.10;99.90;;;;;;937173;152;27442;-79
2022/11/02 05:56:31;;;;;;;2.50;1.50;;;12.10;99.90;;;;;;924245;151;28185;-80
2022/11/02 05:58:58;;;;;;;8.33;2.50;;;12.10;99.90;;;;;;917845;152;27374;-79
2022/11/02 06:01:24;;;;;;;5.03;1.83;;;12.20;99.90;;;;;;917896;152;27457;-79
2022/11/02 06:03:51;;;;;;;3.70;1.77;;;12.20;99.90;;;;;;931163;152;27363;-79
2022/11/02 06:06:18;;;;;;;3.90;1.63;;;12.20;99.90;;;;;;933257;149;27342;-79
2022/11/02 06:08:44;;;;;;;3.17;1.70;;;12.20;99.90;;;;;;934550;149;27391;-79
2022/11/02 06:11:11;;;;;;;2.80;1.50;;;12.30;99.90;;;;;;933759;149;27281;-79
2022/11/02 06:13:37;;;;;;;3.63;1.50;;;12.40;99.90;;;;;;932141;149;27403;-79
2022/11/02 06:16:04;;;;;;;5.67;1.70;;;12.40;99.90;;;;;;935608;149;27458;-77
2022/11/02 06:18:31;;;;;;;4.30;1.80;;;12.40;99.90;;;;;;934078;149;27271;-77
2022/11/02 06:20:57;;;;;;;7.30;2.63;;;12.40;99.90;;;;;;933647;150;27268;-79
2022/11/02 06:23:26;;;;;;;5.03;1.70;;;12.50;99.90;;;;;;933218;149;27331;-79
2022/11/02 06:25:53;;;;;;;3.50;1.77;;;12.50;99.90;;;;;;934031;151;27374;-79
2022/11/02 06:28:19;;;;;;;5.00;2.23;;;12.60;99.90;;;;;;934164;152;27762;-80
2022/11/02 06:30:46;;;;;;;3.83;1.70;;;12.70;99.90;;;;;;931844;152;27377;-80
2022/11/02 06:33:13;;;;;;;2.13;1.63;;;12.70;99.90;;;;;;932059;149;27637;-80
2022/11/02 06:35:39;;;;;;;7.65;2.20;;;12.80;99.90;;;;;;932538;149;27437;-79
2022/11/02 06:38:06;;;;;;;6.60;1.90;;;12.90;99.90;;;;;;932744;149;27440;-80
2022/11/02 06:40:32;;;;;;;3.47;1.70;;;13.00;99.90;;;;;;931786;149;27362;-79
2022/11/02 06:42:59;;;;;;;4.87;2.00;;;13.10;99.90;;;;;;932967;149;27372;-80
2022/11/02 06:45:26;;;;;;;5.43;2.37;;;13.20;99.90;;;;;;934018;149;27327;-80
2022/11/02 06:47:52;;;;;;;4.47;2.00;;;13.30;99.90;;;;;;932899;151;27399;-80
2022/11/02 06:50:20;;;;;;;4.28;1.70;;;13.40;99.90;;;;;;931106;149;27336;-80
2022/11/02 06:52:45;;;;;;;4.05;1.98;;;13.40;99.90;;;;;;921331;155;27467;-80
2022/11/02 06:55:12;;;;;;;6.12;2.02;;;13.50;99.90;;;;;;921532;152;27425;-80
2022/11/02 06:57:38;;;;;;;8.37;1.80;;;13.60;99.90;;;;;;921317;152;27447;-80
2022/11/02 07:00:05;;;;;;;6.93;1.90;;;13.60;99.90;;;;;;918077;152;27367;-80
2022/11/02 07:02:32;;;;;;;4.37;1.60;;;13.70;99.90;;;;;;917191;152;27392;-80
2022/11/02 07:04:58;;;;;;;3.50;1.60;;;13.80;99.90;;;;;;930449;149;27385;-80
2022/11/02 07:07:25;;;;;;;5.08;1.65;;;13.90;99.90;;;;;;932262;151;27456;-80
2022/11/02 07:09:51;;;;;;;8.18;1.87;;;13.90;99.90;;;;;;932061;149;27446;-80
2022/11/02 07:12:18;;;;;;;3.03;1.50;;;14.00;99.90;;;;;;930057;149;27364;-80
2022/11/02 07:14:45;;;;;;;4.43;1.60;;;14.10;99.90;;;;;;932428;149;27375;-80
2022/11/02 07:17:11;;;;;;;3.07;1.57;;;14.20;99.90;;;;;;931615;149;27375;-80
2022/11/02 07:19:38;;;;;;;4.25;1.90;;;14.30;99.90;;;;;;931406;150;27432;-80
2022/11/02 07:22:04;;;;;;;5.43;1.60;;;14.30;99.90;;;;;;931288;149;27353;-80
2022/11/02 07:24:31;;;;;;;7.70;1.73;;;14.40;99.90;;;;;;931343;149;27903;-80
2022/11/02 07:26:58;;;;;;;4.95;2.15;;;14.40;99.70;;;;;;930853;148;27329;-80
2022/11/02 07:29:24;;;;;;;2.33;1.75;;;14.40;99.40;;;;;;930029;149;27482;-80
2022/11/02 07:31:51;;;;;;;3.33;1.50;;;14.40;99.20;;;;;;932452;149;27430;-80
2022/11/02 07:34:17;;;;;;;2.67;1.80;;;14.40;99.00;;;;;;932178;149;27415;-80
2022/11/02 07:36:44;;;;;;;2.97;1.60;;;14.50;99.10;;;;;;932963;149;27367;-80
2022/11/02 07:39:10;;;;;;;5.05;1.77;;;14.60;99.90;;;;;;932662;149;27416;-80
2022/11/02 07:41:37;;;;;;;3.50;1.72;;;14.90;99.90;;;;;;932953;149;27444;-80
2022/11/02 07:44:04;;;;;;;5.20;1.90;;;15.30;99.90;;;;;;930602;149;27464;-80
2022/11/02 07:46:30;;;;;;;6.00;1.82;;;15.80;99.90;;;;;;930893;150;27374;-80
2022/11/02 07:48:57;;;;;;;4.78;1.77;;;16.40;99.90;;;;;;931159;151;27356;-81
2022/11/02 07:51:23;;;;;;;3.25;1.62;;;17.10;99.90;;;;;;932240;149;27819;-81
2022/11/02 07:53:50;;;;;;;2.30;1.37;;;17.70;99.90;;;;;;931633;150;27482;-81
2022/11/02 07:56:17;;;;;;;3.15;1.40;;;18.30;99.80;;;;;;932321;149;27382;-81
2022/11/02 07:58:43;;;;;;;3.12;1.22;;;18.90;98.20;;;;;;935098;151;27447;-81
2022/11/02 08:01:10;;;;;;;3.75;1.60;;;19.40;96.40;;;;;;932831;151;27414;-81
2022/11/02 08:03:36;;;;;;;3.62;1.47;;;19.90;94.40;;;;;;930985;152;27353;-81
2022/11/02 08:06:03;;;;;;;3.42;1.65;;;20.40;93.20;;;;;;934180;150;27339;-81
2022/11/02 08:08:30;;;;;;;5.78;1.80;;;20.90;92.30;;;;;;933392;150;27447;-81
2022/11/02 08:10:56;;;;;;;4.12;1.52;;;21.30;90.80;;;;;;931402;152;27407;-81
2022/11/02 08:13:24;;;;;;;3.85;1.60;;;21.80;89.70;;;;;;931536;151;27462;-81
2022/11/02 08:15:49;;;;;;;3.12;1.67;;;22.20;86.90;;;;;;933399;150;27324;-82
2022/11/02 08:18:19;;;;;;;2.87;1.55;;;22.50;84.30;;;;;;933904;150;27430;-82
2022/11/02 08:20:45;;;;;;;4.33;1.95;;;22.90;82.10;;;;;;920200;152;27471;-81
2022/11/02 08:23:12;;;;;;;2.77;1.17;;;23.20;81.00;;;;;;931611;150;27388;-82
2022/11/02 08:25:38;;;;;;;3.27;1.70;;;23.50;79.20;;;;;;931392;150;27341;-82
2022/11/02 08:28:05;;;;;;;2.35;1.42;;;23.70;77.90;;;;;;933256;151;27430;-82
2022/11/02 08:30:32;;;;;;;4.53;2.10;;;24.00;76.90;;;;;;931011;151;27418;-82
2022/11/02 08:33:04;;;;;;;4.10;1.57;;;24.20;75.50;;;;;;932250;151;29206;-81
2022/11/02 08:35:31;;;;;;;4.22;1.40;;;24.30;73.30;;;;;;930331;150;27896;-81
2022/11/02 08:37:58;;;;;;;3.98;1.95;;;24.30;71.50;;;;;;931865;151;27346;-82
2022/11/02 08:40:24;;;;;;;4.22;1.55;;;24.10;69.00;;;;;;931781;152;27327;-82
2022/11/02 08:42:56;;;;;;;4.00;1.42;;;23.90;67.70;;;;;;932109;150;27814;-82
2022/11/02 08:45:23;;;;;;;3.35;1.72;;;23.40;67.40;;;;;;933036;150;27413;-81
2022/11/02 08:47:49;;;;;;;3.37;1.32;;;23.00;67.20;;;;;;932897;150;28375;-81
2022/11/02 08:50:16;;;;;;;2.47;1.80;;;22.50;67.40;;;;;;934686;150;27870;-81
2022/11/02 08:52:43;;;;;;;3.47;1.98;;;22.00;67.00;;;;;;931554;150;27342;-81
2022/11/02 08:55:09;;;;;;;4.80;1.80;;;21.50;67.60;;;;;;931751;150;27353;-82
2022/11/02 08:57:45;;;;;;;4.78;1.85;;;21.10;68.20;;;;;;933373;150;27451;-81
2022/11/02 09:00:11;;;;;;;6.12;1.77;;;20.60;68.90;;;;;;922465;152;28369;-81
2022/11/02 09:02:38;;;;;;;3.33;1.47;;;20.30;69.40;;;;;;931935;152;27523;-81
2022/11/02 09:05:04;;;;;;;5.80;1.55;;;20.10;70.70;;;;;;932939;149;27326;-81
2022/11/02 09:07:31;;;;;;;3.58;2.10;;;19.90;71.80;;;;;;932517;149;27353;-81
2022/11/02 09:09:57;;;;;;;4.30;1.37;;;19.80;71.60;;;;;;931771;149;27517;-81
2022/11/02 09:12:24;;;;;;;7.47;1.82;;;19.70;71.60;;;;;;931521;149;27355;-81
2022/11/02 09:14:51;;;;;;;4.15;1.72;;;19.50;72.00;;;;;;931944;149;27360;-81
2022/11/02 09:17:17;;;;;;;3.55;1.67;;;19.40;72.90;;;;;;932769;149;27367;-81
2022/11/02 09:19:44;;;;;;;4.25;2.27;;;19.30;72.70;;;;;;931328;152;27502;-81
2022/11/02 09:22:10;;;;;;;4.17;1.90;;;19.30;73.50;;;;;;933244;149;27408;-81
2022/11/02 09:24:37;;;;;;;3.95;1.50;;;19.30;74.20;;;;;;931393;150;27492;-81
2022/11/02 09:27:04;;;;;;;6.62;1.80;;;19.30;74.70;;;;;;932135;150;27331;-81
2022/11/02 09:29:30;;;;;;;5.92;1.80;;;19.40;74.70;;;;;;932137;152;27487;-81
2022/11/02 09:31:57;;;;;;;4.80;1.95;;;19.40;73.60;;;;;;933435;150;27437;-81
2022/11/02 09:34:23;;;;;;;3.58;1.65;;;19.40;72.90;;;;;;930643;152;27445;-81
2022/11/02 09:36:50;;;;;;;2.35;2.00;;;19.40;72.80;;;;;;931565;149;27428;-81
2022/11/02 09:39:17;;;;;;;2.70;1.57;;;19.40;72.70;;;;;;930129;152;27354;-81
2022/11/02 09:41:58;;;;;;;6.50;1.65;;;19.30;72.80;;;;;;934007;150;27342;-81
2022/11/02 09:44:30;;;;;;;3.05;1.60;;;19.20;73.40;;;;;;891302;157;27472;-81
2022/11/02 09:46:56;;;;;;;3.92;1.45;;;19.20;73.00;;;;;;912337;150;27495;-82
2022/11/02 09:49:23;;;;;;;2.87;1.70;;;19.10;73.30;;;;;;931387;149;27351;-81
2022/11/02 09:51:52;;;;;;;3.15;1.30;;;19.10;73.30;;;;;;929709;149;27358;-82
2022/11/02 09:54:25;;;;;;;4.10;1.42;;;19.10;72.90;;;;;;932407;150;27364;-82
2022/11/02 09:56:51;;;;;;;4.05;1.50;;;19.10;73.20;;;;;;932127;149;27453;-82
2022/11/02 09:59:18;;;;;;;2.67;1.40;;;19.20;73.20;;;;;;930924;152;27371;-82
2022/11/02 10:01:56;;;;;;;2.45;1.40;;;19.20;73.00;;;;;;932395;152;27366;-81
2022/11/02 10:04:41;;;;;;;5.10;1.67;;;19.20;72.90;;;;;;920176;152;27480;-82
2022/11/02 10:07:31;;;;;;;4.35;1.75;;;19.20;72.50;;;;;;932631;152;27348;-81
2022/11/02 10:10:10;;;;;;;5.10;2.20;;;19.20;72.70;;;;;;931610;151;27376;-81
2022/11/02 10:12:54;;;;;;;3.58;1.45;;;19.20;72.50;;;;;;933871;151;27410;-82
2022/11/02 10:15:39;;;;;;;5.75;1.60;;;19.20;72.30;;;;;;931559;150;27825;-82
2022/11/02 10:18:05;;;;;;;3.15;1.40;;;19.20;71.80;;;;;;930487;150;27423;-79
2022/11/02 10:20:37;;;;;;;4.65;1.30;;;19.20;71.80;;;;;;932434;152;27335;-81
2022/11/02 10:23:07;;;;;;;4.28;1.70;;;19.10;71.20;;;;;;932952;150;27382;-82
2022/11/02 10:25:33;;;;;;;3.42;1.47;;;19.10;71.40;;;;;;932761;150;27467;-82
2022/11/02 10:28:03;;;;;;;4.75;1.40;;;19.00;71.20;;;;;;932752;152;27453;-82
2022/11/02 10:30:29;;;;;;;2.62;1.50;;;19.00;71.00;;;;;;934778;151;28216;-82
2022/11/02 10:32:56;;;;;;;2.45;1.10;;;18.90;71.50;;;;;;932404;150;27375;-82
2022/11/02 10:35:34;;;;;;;2.40;1.22;;;18.90;71.40;;;;;;930770;150;27350;-82
2022/11/02 10:38:12;;;;;;;3.42;1.45;;;18.80;71.40;;;;;;926072;152;27462;-82
2022/11/02 10:41:13;;;;;;;2.90;1.45;;;18.80;71.20;;;;;;931156;152;27362;-82
2022/11/02 10:44:03;;;;;;;4.80;1.40;;;18.80;70.90;;;;;;931172;152;27369;-82
2022/11/02 10:46:32;;;;;;;3.62;1.32;;;18.80;71.20;;;;;;932305;150;28566;-82
2022/11/02 10:49:07;;;;;;;1.50;1.10;;;18.70;71.00;;;;;;930177;150;27414;-82
2022/11/02 10:51:34;;;;;;;4.33;1.40;;;18.70;70.90;;;;;;932846;152;27358;-82
2022/11/02 10:54:00;;;;;;;11.00;1.30;;;18.70;70.80;;;;;;931628;152;27366;-82
2022/11/02 10:56:33;;;;;;;1.85;1.27;;;18.70;70.90;;;;;;933320;150;27354;-82
2022/11/02 10:58:59;;;;;;;3.85;1.30;;;18.70;70.90;;;;;;940739;148;27457;-82
2022/11/02 11:01:26;;;;;;;3.62;1.67;;;18.70;70.60;;;;;;942393;148;27366;-82
2022/11/02 11:04:01;;;;;;;3.98;1.25;;;18.70;70.30;;;;;;943278;148;27372;-82
2022/11/02 11:06:31;;;;;;;5.35;1.35;;;18.70;69.90;;;;;;941911;148;27348;-81
2022/11/02 11:09:00;;;;;;;3.67;1.40;;;18.70;69.70;;;;;;943216;148;27378;-82
2022/11/02 11:11:30;;;;;;;3.22;1.15;;;18.70;69.60;;;;;;942875;148;27350;-82
2022/11/02 11:14:17;;;;;;;4.10;1.72;;;18.70;69.70;;;;;;942349;151;27454;-82
2022/11/02 11:16:44;;;;;;;4.95;1.85;;;18.70;69.80;;;;;;941895;148;27430;-82
2022/11/02 11:19:19;;;;;;;2.22;1.20;;;18.60;69.70;;;;;;942087;148;27356;-82
2022/11/02 11:21:46;;;;;;;3.35;1.27;;;18.60;69.60;;;;;;939917;148;27346;-82
2022/11/02 11:24:27;;;;;;;3.60;1.60;;;18.60;69.10;;;;;;944239;151;27442;-82
2022/11/02 11:27:00;;;;;;;3.83;1.82;;;18.60;68.70;;;;;;944026;148;27420;-82
2022/11/02 11:29:26;;;;;;;3.83;1.30;;;18.60;68.10;;;;;;941254;150;27337;-82
2022/11/02 11:31:53;;;;;;;4.45;1.70;;;18.70;68.80;;;;;;943891;148;27341;-82
2022/11/02 11:34:22;;;;;;;4.12;1.37;;;18.60;68.40;;;;;;942556;148;27361;-82
2022/11/02 11:36:49;;;;;;;6.58;1.42;;;18.70;68.40;;;;;;943742;148;27369;-82
2022/11/02 11:39:21;;;;;;;5.15;1.80;;;18.60;67.90;;;;;;943319;148;27385;-82
2022/11/02 11:41:48;;;;;;;3.25;1.72;;;18.60;67.70;;;;;;942731;148;27433;-81
2022/11/02 11:44:14;;;;;;;6.35;1.50;;;18.60;67.60;;;;;;941672;148;27352;-82
2022/11/02 11:46:47;;;;;;;3.30;1.52;;;18.60;67.10;;;;;;942160;148;28051;-82
2022/11/02 11:49:16;;;;;;;3.67;1.50;;;18.60;67.60;;;;;;943246;150;27338;-82
2022/11/02 11:51:44;;;;;;;2.67;1.50;;;18.60;67.90;;;;;;940132;148;27511;-82
2022/11/02 11:54:30;;;;;;;2.55;1.00;;;18.60;67.70;;;;;;943184;151;27333;-82
2022/11/02 11:57:26;;;;;;;2.85;1.32;;;18.60;67.60;;;;;;943537;148;27359;-82
2022/11/02 11:59:51;;;;;;;3.80;1.45;;;18.60;67.80;;;;;;939316;151;27389;-82
2022/11/02 12:02:26;;;;;;;4.53;1.72;;;18.60;68.10;;;;;;938468;149;27367;-82
2022/11/02 12:05:11;;;;;;;2.00;0.82;;;18.60;68.70;;;;;;937496;149;27367;-82
2022/11/02 12:07:43;;;;;;;4.60;2.70;;;18.50;67.80;;;;;;937783;149;27843;-82
2022/11/02 12:10:18;;;;;;;3.15;1.20;;;18.60;68.20;;;;;;937427;151;27338;-82
2022/11/02 12:13:03;;;;;;;4.35;1.45;;;18.60;68.00;;;;;;936511;151;27459;-82
2022/11/02 12:15:47;;;;;;;2.98;1.65;;;18.60;68.10;;;;;;936635;149;27362;-82
2022/11/02 12:18:35;;;;;;;2.60;1.17;;;18.60;68.10;;;;;;935271;151;27361;-82
2022/11/02 12:21:08;;;;;;;3.85;1.42;;;18.60;67.90;;;;;;939532;149;27444;-82
2022/11/02 12:23:52;;;;;;;4.03;1.80;;;18.60;67.70;;;;;;936609;149;27350;-82
2022/11/02 12:26:31;;;;;;;1.92;1.47;;;18.60;67.60;;;;;;928850;151;27407;-82
2022/11/02 12:29:07;;;;;;;3.77;1.60;;;18.60;67.30;;;;;;938797;149;27399;-82
2022/11/02 12:31:41;;;;;;;2.30;1.25;;;18.60;67.10;;;;;;938137;149;27433;-82
2022/11/02 12:34:17;;;;;;;2.25;1.35;;;18.60;67.10;;;;;;936834;151;27362;-81
2022/11/02 12:36:52;;;;;;;2.50;1.27;;;18.60;66.20;;;;;;943128;149;27344;-82
2022/11/02 12:39:27;;;;;;;3.42;1.12;;;18.60;66.20;;;;;;939790;149;28382;-80
2022/11/02 12:42:09;;;;;;;4.37;1.45;;;18.60;65.80;;;;;;940649;151;27322;-81
2022/11/02 12:45:12;;;;;;;4.78;1.47;;;18.60;66.00;;;;;;938938;149;27458;-82
2022/11/02 12:48:00;;;;;;;2.58;1.05;;;18.60;65.70;;;;;;940946;149;27475;-82
2022/11/02 12:50:35;;;;;;;3.17;1.32;;;18.60;64.90;;;;;;938080;151;27373;-82
2022/11/02 12:53:02;;;;;;;3.02;1.67;;;18.60;65.10;;;;;;937224;151;27342;-82
2022/11/02 12:55:28;;;;;;;2.75;1.22;;;18.60;65.30;;;;;;941111;148;27489;-82
2022/11/02 12:57:55;;;;;;;2.87;1.05;;;18.60;65.00;;;;;;939190;151;27355;-80
2022/11/02 13:00:21;;;;;;;3.30;1.12;;;18.60;64.50;;;;;;930734;152;27393;-80
2022/11/02 13:03:12;;;;;;;2.55;1.55;;;18.60;65.10;;;;;;915213;155;27387;-81
2022/11/02 13:05:38;;;;;;;4.37;1.30;;;18.60;64.80;;;;;;931470;150;27380;-81
2022/11/02 13:08:11;;;;;;;5.10;1.57;;;18.60;65.00;;;;;;916116;154;27460;-81
2022/11/02 13:10:43;;;;;;;3.22;1.40;;;18.60;65.10;;;;;;916589;152;27460;-81
2022/11/02 13:13:09;;;;;;;3.00;1.25;;;18.60;65.00;;;;;;925918;151;27402;-81